Time;durP1;ratioP1;P1;durP2;ratioP2;P2;SDS_P1;SDS_P2;PMS_P1;PMS_P2;Temp;Humidity;BMP_temperature;BMP_pressure;BME280_temperature;BME280_humidity;BME280_pressure;Samples;Min_cycle;Max_cycle;Signal;HPM_P1;HPM_P2
2022/10/09 00:00:08;;;;;;;3.53;2.40;;;9.30;99.90;;;;;;5040322;28;20029;-72
2022/10/09 00:02:34;;;;;;;8.90;3.05;;;9.20;99.90;;;;;;5038618;28;20029;-73
2022/10/09 00:04:59;;;;;;;9.90;2.95;;;9.10;99.90;;;;;;5040473;28;20031;-73
2022/10/09 00:07:25;;;;;;;5.35;2.05;;;9.10;99.90;;;;;;5038648;28;20446;-72
2022/10/09 00:09:55;;;;;;;8.55;2.63;;;9.00;99.90;;;;;;5038018;28;20048;-74
2022/10/09 00:12:21;;;;;;;7.18;2.85;;;9.00;99.90;;;;;;5037585;28;20037;-70
2022/10/09 00:14:47;;;;;;;9.68;3.22;;;8.90;99.90;;;;;;5037790;28;20091;-72
2022/10/09 00:17:12;;;;;;;7.85;3.25;;;8.90;99.90;;;;;;5039297;28;20030;-73
2022/10/09 00:19:42;;;;;;;7.93;2.72;;;8.90;99.90;;;;;;5037331;28;20104;-73
2022/10/09 00:22:08;;;;;;;9.00;2.92;;;8.90;99.90;;;;;;5039011;28;20032;-73
2022/10/09 00:24:34;;;;;;;7.40;2.97;;;8.80;99.90;;;;;;5042777;28;20017;-73
2022/10/09 00:26:59;;;;;;;10.10;2.95;;;8.70;99.90;;;;;;5037332;28;20171;-73
2022/10/09 00:29:25;;;;;;;9.57;3.00;;;8.70;99.90;;;;;;5042880;28;20025;-73
2022/10/09 00:31:50;;;;;;;6.93;3.20;;;8.70;99.90;;;;;;5038051;28;20035;-74
2022/10/09 00:34:16;;;;;;;10.70;3.60;;;8.70;99.90;;;;;;5037562;28;20094;-72
2022/10/09 00:36:41;;;;;;;6.13;2.92;;;8.70;99.90;;;;;;5038567;28;20481;-74
2022/10/09 00:39:07;;;;;;;4.65;2.65;;;8.70;99.90;;;;;;5039076;28;20036;-73
2022/10/09 00:41:33;;;;;;;6.22;2.78;;;8.60;99.90;;;;;;5036122;28;20478;-73
2022/10/09 00:44:01;;;;;;;9.88;3.20;;;8.60;99.90;;;;;;5042254;28;20025;-72
2022/10/09 00:46:43;;;;;;;4.50;2.88;;;8.60;99.90;;;;;;5035621;28;20025;-73
2022/10/09 00:49:19;;;;;;;7.60;3.35;;;8.60;99.90;;;;;;5041383;28;20104;-73
2022/10/09 00:51:48;;;;;;;13.50;3.45;;;8.60;99.90;;;;;;5037995;28;20137;-74
2022/10/09 00:54:19;;;;;;;6.65;3.28;;;8.60;99.90;;;;;;5039051;28;20047;-72
2022/10/09 00:56:45;;;;;;;9.68;3.33;;;8.50;99.90;;;;;;5045138;28;20029;-73
2022/10/09 00:59:13;;;;;;;5.05;3.10;;;8.50;99.90;;;;;;5038335;28;20041;-74
2022/10/09 01:01:40;;;;;;;13.93;3.60;;;8.50;99.90;;;;;;5039819;28;20048;-73
2022/10/09 01:04:08;;;;;;;5.57;2.50;;;8.50;99.90;;;;;;5037767;28;20048;-72
2022/10/09 01:06:43;;;;;;;6.47;2.92;;;8.50;99.90;;;;;;5039673;28;20046;-73
2022/10/09 01:09:15;;;;;;;6.47;2.97;;;8.50;99.90;;;;;;5042118;28;20096;-73
2022/10/09 01:12:04;;;;;;;7.25;3.13;;;8.50;99.90;;;;;;5041618;28;20136;-74
2022/10/09 01:14:45;;;;;;;7.50;3.08;;;8.50;99.90;;;;;;5038651;28;20505;-72
2022/10/09 01:17:24;;;;;;;6.00;3.20;;;8.50;99.90;;;;;;5039116;28;20421;-73
2022/10/09 01:19:52;;;;;;;9.18;3.15;;;8.40;99.90;;;;;;5037033;28;20021;-74
2022/10/09 01:22:45;;;;;;;5.28;3.03;;;8.30;99.90;;;;;;5040541;28;20024;-73
2022/10/09 01:25:26;;;;;;;7.82;2.88;;;8.30;99.90;;;;;;5038473;28;20029;-73
2022/10/09 01:27:57;;;;;;;5.53;2.78;;;8.30;99.90;;;;;;5039396;28;20042;-73
2022/10/09 01:30:28;;;;;;;10.00;3.28;;;8.30;99.90;;;;;;5038881;28;20025;-73
2022/10/09 01:32:54;;;;;;;5.05;3.15;;;8.30;99.90;;;;;;5039236;28;20033;-73
2022/10/09 01:35:21;;;;;;;8.38;3.30;;;8.20;99.90;;;;;;5038763;28;20102;-73
2022/10/09 01:37:50;;;;;;;10.02;3.72;;;8.20;99.90;;;;;;5039207;28;20033;-70
2022/10/09 01:40:20;;;;;;;11.13;4.78;;;8.20;99.90;;;;;;5039790;28;20032;-73
2022/10/09 01:42:46;;;;;;;6.18;3.58;;;8.20;99.90;;;;;;5038556;28;20021;-73
2022/10/09 01:45:13;;;;;;;8.02;3.70;;;8.20;99.90;;;;;;5037969;28;20477;-73
2022/10/09 01:47:39;;;;;;;5.90;3.35;;;8.20;99.90;;;;;;5037936;28;20426;-73
2022/10/09 01:50:30;;;;;;;7.95;3.45;;;8.20;99.90;;;;;;5038706;28;20056;-70
2022/10/09 01:53:23;;;;;;;5.25;3.10;;;8.10;99.90;;;;;;5035609;28;20108;-74
2022/10/09 01:56:03;;;;;;;6.38;3.80;;;8.10;99.90;;;;;;5035753;28;20036;-73
2022/10/09 01:58:38;;;;;;;7.57;3.35;;;8.10;99.90;;;;;;5037807;28;20029;-72
2022/10/09 02:01:08;;;;;;;13.43;3.60;;;8.10;99.90;;;;;;5037624;28;20029;-73
2022/10/09 02:03:37;;;;;;;11.77;3.47;;;8.10;99.90;;;;;;5039237;28;20025;-72
2022/10/09 02:06:05;;;;;;;6.63;3.15;;;8.00;99.90;;;;;;5042175;28;20319;-73
2022/10/09 02:08:35;;;;;;;6.88;3.47;;;8.00;99.90;;;;;;5038101;28;20025;-73
2022/10/09 02:11:02;;;;;;;14.40;3.85;;;8.00;99.90;;;;;;5034606;28;20451;-73
2022/10/09 02:13:29;;;;;;;7.97;3.70;;;8.00;99.90;;;;;;5036021;28;20025;-72
2022/10/09 02:16:13;;;;;;;6.57;3.75;;;8.00;99.90;;;;;;5037783;28;20091;-72
2022/10/09 02:19:03;;;;;;;8.23;3.90;;;8.00;99.90;;;;;;5036055;28;20354;-73
2022/10/09 02:21:52;;;;;;;7.07;3.30;;;8.00;99.90;;;;;;5027899;28;20084;-73
2022/10/09 02:24:20;;;;;;;5.63;3.38;;;8.00;99.90;;;;;;5038351;28;20111;-71
2022/10/09 02:26:46;;;;;;;6.65;3.70;;;8.00;99.90;;;;;;5036987;28;20021;-74
2022/10/09 02:29:12;;;;;;;8.10;3.85;;;7.90;99.90;;;;;;5037784;28;20096;-73
2022/10/09 02:31:44;;;;;;;9.38;3.88;;;7.90;99.90;;;;;;5044609;28;20033;-74
2022/10/09 02:34:16;;;;;;;10.73;3.80;;;7.80;99.90;;;;;;5041221;28;20025;-71
2022/10/09 02:36:42;;;;;;;21.27;3.97;;;7.80;99.90;;;;;;5034849;28;20033;-74
2022/10/09 02:39:12;;;;;;;6.50;3.05;;;7.80;99.90;;;;;;5043784;28;20037;-72
2022/10/09 02:41:37;;;;;;;11.70;3.90;;;7.80;99.90;;;;;;5035808;28;20017;-73
2022/10/09 02:44:04;;;;;;;4.03;3.00;;;7.80;99.90;;;;;;5038383;28;20025;-72
2022/10/09 02:46:30;;;;;;;6.78;3.17;;;7.80;99.90;;;;;;5045037;28;20084;-73
2022/10/09 02:48:55;;;;;;;7.10;3.50;;;7.80;99.90;;;;;;5036962;28;20041;-72
2022/10/09 02:51:24;;;;;;;6.28;3.05;;;7.80;99.90;;;;;;5035037;28;20036;-74
2022/10/09 02:53:58;;;;;;;7.45;3.25;;;7.80;99.90;;;;;;5038032;28;20625;-73
2022/10/09 02:56:27;;;;;;;6.43;3.53;;;7.90;99.90;;;;;;5037986;28;20386;-74
2022/10/09 02:58:52;;;;;;;10.55;3.97;;;7.90;99.90;;;;;;5040080;28;20029;-73
2022/10/09 03:01:23;;;;;;;10.35;3.80;;;7.80;99.90;;;;;;5034477;28;20036;-73
2022/10/09 03:03:51;;;;;;;9.43;3.55;;;7.90;99.90;;;;;;5043026;28;20048;-72
2022/10/09 03:06:22;;;;;;;8.82;4.00;;;7.80;99.90;;;;;;5043742;28;20071;-73
2022/10/09 03:08:48;;;;;;;7.53;3.30;;;7.80;99.90;;;;;;5038056;28;20029;-74
2022/10/09 03:11:16;;;;;;;10.15;3.60;;;7.80;99.90;;;;;;5041514;28;20180;-73
2022/10/09 03:13:42;;;;;;;8.75;3.50;;;7.80;99.90;;;;;;5042121;28;20040;-73
2022/10/09 03:16:08;;;;;;;8.02;3.35;;;7.80;99.90;;;;;;5042523;28;20037;-74
2022/10/09 03:18:34;;;;;;;6.28;3.60;;;7.80;99.90;;;;;;5059588;28;20462;-71
2022/10/09 03:21:03;;;;;;;7.80;4.07;;;7.70;99.90;;;;;;5038920;28;20534;-74
2022/10/09 03:23:29;;;;;;;6.00;3.78;;;7.70;99.90;;;;;;5043587;28;20047;-73
2022/10/09 03:26:00;;;;;;;19.15;4.30;;;7.70;99.90;;;;;;5039252;28;20032;-73
2022/10/09 03:28:26;;;;;;;4.40;3.80;;;7.70;99.90;;;;;;5039976;28;20076;-73
2022/10/09 03:30:52;;;;;;;7.03;4.05;;;7.70;99.90;;;;;;5040794;28;20032;-72
2022/10/09 03:33:23;;;;;;;7.40;3.92;;;7.70;99.90;;;;;;5041319;28;20025;-74
2022/10/09 03:35:49;;;;;;;7.43;3.67;;;7.60;99.90;;;;;;5043899;28;20040;-73
2022/10/09 03:38:17;;;;;;;6.50;3.83;;;7.60;99.90;;;;;;5045454;28;20409;-72
2022/10/09 03:40:45;;;;;;;5.95;3.88;;;7.50;99.90;;;;;;5040888;28;20036;-74
2022/10/09 03:43:11;;;;;;;14.23;5.00;;;7.50;99.90;;;;;;5041110;28;20032;-74
2022/10/09 03:45:42;;;;;;;9.88;4.13;;;7.50;99.90;;;;;;5044946;28;20018;-73
2022/10/09 03:48:14;;;;;;;14.13;4.38;;;7.50;99.90;;;;;;5045335;28;20485;-72
2022/10/09 03:50:40;;;;;;;11.70;4.38;;;7.50;99.90;;;;;;5043327;28;20013;-72
2022/10/09 03:53:10;;;;;;;13.48;4.30;;;7.50;99.90;;;;;;5042762;28;20031;-74
2022/10/09 03:55:36;;;;;;;14.25;4.47;;;7.50;99.90;;;;;;5043509;28;20403;-73
2022/10/09 03:58:05;;;;;;;11.02;4.53;;;7.50;99.90;;;;;;5045405;28;20056;-72
2022/10/09 04:00:31;;;;;;;11.57;4.22;;;7.50;99.90;;;;;;5040403;28;20039;-73
2022/10/09 04:02:57;;;;;;;9.68;4.30;;;7.50;99.90;;;;;;5040458;28;20045;-73
2022/10/09 04:05:23;;;;;;;11.43;4.32;;;7.50;99.90;;;;;;5037527;28;20056;-73
2022/10/09 04:07:48;;;;;;;6.97;4.18;;;7.50;99.90;;;;;;5040410;28;20025;-73
2022/10/09 04:10:14;;;;;;;9.10;4.53;;;7.50;99.90;;;;;;5043458;28;20543;-72
2022/10/09 04:12:42;;;;;;;10.85;4.63;;;7.50;99.90;;;;;;5040580;28;20029;-72
2022/10/09 04:15:09;;;;;;;10.68;4.10;;;7.40;99.90;;;;;;5041415;28;20439;-74
2022/10/09 04:17:35;;;;;;;10.43;4.43;;;7.40;99.90;;;;;;5043913;28;20095;-74
2022/10/09 04:20:00;;;;;;;12.57;5.20;;;7.40;99.90;;;;;;5042268;28;20041;-72
2022/10/09 04:22:26;;;;;;;9.48;4.40;;;7.40;99.90;;;;;;5042565;28;20132;-74
2022/10/09 04:24:54;;;;;;;8.13;4.72;;;7.40;99.90;;;;;;5039268;28;20026;-72
2022/10/09 04:27:19;;;;;;;7.82;4.75;;;7.40;99.90;;;;;;5039964;28;20061;-72
2022/10/09 04:29:47;;;;;;;17.10;5.43;;;7.30;99.90;;;;;;5040619;28;20053;-74
2022/10/09 04:32:12;;;;;;;9.50;4.85;;;7.40;99.90;;;;;;5038599;28;20037;-72
2022/10/09 04:34:40;;;;;;;14.27;4.82;;;7.30;99.90;;;;;;5039473;28;20029;-73
2022/10/09 04:37:08;;;;;;;8.50;4.78;;;7.30;99.90;;;;;;5040026;28;20037;-74
2022/10/09 04:39:34;;;;;;;12.90;4.68;;;7.30;99.90;;;;;;5047266;28;21001;-74
2022/10/09 04:41:59;;;;;;;9.60;4.32;;;7.30;99.90;;;;;;5035277;28;20025;-74
2022/10/09 04:44:27;;;;;;;15.68;4.40;;;7.30;99.90;;;;;;5042250;28;20064;-73
2022/10/09 04:46:53;;;;;;;8.35;4.15;;;7.30;99.90;;;;;;5041671;28;20398;-72
2022/10/09 04:49:19;;;;;;;6.97;4.03;;;7.20;99.90;;;;;;5040922;28;20094;-74
2022/10/09 04:51:47;;;;;;;16.30;4.43;;;7.20;99.90;;;;;;5042216;28;20028;-71
2022/10/09 04:54:12;;;;;;;9.90;4.03;;;7.30;99.90;;;;;;5043088;28;20045;-72
2022/10/09 04:56:38;;;;;;;10.88;4.32;;;7.30;99.90;;;;;;5036753;28;20055;-73
2022/10/09 04:59:06;;;;;;;13.18;4.15;;;7.20;99.90;;;;;;5037478;28;20029;-74
2022/10/09 05:01:32;;;;;;;10.30;5.18;;;7.20;99.90;;;;;;5037223;28;20029;-74
2022/10/09 05:03:57;;;;;;;12.43;4.65;;;7.20;99.90;;;;;;5042079;28;20080;-73
2022/10/09 05:06:25;;;;;;;9.75;4.30;;;7.20;99.90;;;;;;5040433;28;20151;-73
2022/10/09 05:08:54;;;;;;;12.98;4.80;;;7.20;99.90;;;;;;5039144;28;20024;-73
2022/10/09 05:11:23;;;;;;;14.13;5.43;;;7.20;99.90;;;;;;5039536;28;20357;-73
2022/10/09 05:13:51;;;;;;;7.10;4.82;;;7.20;99.90;;;;;;5046093;28;20033;-73
2022/10/09 05:16:22;;;;;;;11.40;5.22;;;7.20;99.90;;;;;;5038462;28;20433;-74
2022/10/09 05:18:53;;;;;;;12.13;5.50;;;7.20;99.90;;;;;;5041227;28;20103;-74
2022/10/09 05:21:19;;;;;;;10.88;5.00;;;7.20;99.90;;;;;;5035720;28;20504;-73
2022/10/09 05:23:51;;;;;;;8.88;4.70;;;7.10;99.90;;;;;;5039237;28;20025;-74
2022/10/09 05:26:22;;;;;;;10.85;5.35;;;7.10;99.90;;;;;;5039155;28;20056;-73
2022/10/09 05:28:48;;;;;;;22.40;5.72;;;7.10;99.90;;;;;;5039181;28;20461;-74
2022/10/09 05:31:20;;;;;;;12.85;4.93;;;7.10;99.90;;;;;;5042587;28;20469;-74
2022/10/09 05:33:46;;;;;;;12.93;4.97;;;7.20;99.90;;;;;;5039727;28;20021;-72
2022/10/09 05:36:12;;;;;;;10.20;5.25;;;7.20;99.90;;;;;;5038447;28;20113;-70
2022/10/09 05:38:37;;;;;;;17.05;5.80;;;7.10;99.90;;;;;;5038529;28;20112;-73
2022/10/09 05:41:05;;;;;;;12.45;5.35;;;7.10;99.90;;;;;;5039258;28;20378;-73
2022/10/09 05:43:39;;;;;;;10.98;5.10;;;7.10;99.90;;;;;;5039816;28;20025;-73
2022/10/09 05:46:05;;;;;;;16.00;5.95;;;7.10;99.90;;;;;;5038515;28;20082;-72
2022/10/09 05:48:33;;;;;;;14.50;5.70;;;7.10;99.90;;;;;;5035883;28;20025;-73
2022/10/09 05:51:20;;;;;;;17.48;6.05;;;7.10;99.90;;;;;;5038650;28;20061;-74
2022/10/09 05:53:49;;;;;;;17.50;5.57;;;7.00;99.90;;;;;;5032236;28;20711;-74
2022/10/09 05:56:20;;;;;;;17.58;5.60;;;7.00;99.90;;;;;;5037715;28;20022;-74
2022/10/09 05:58:57;;;;;;;12.50;5.90;;;7.00;99.90;;;;;;5039012;28;20032;-72
2022/10/09 06:01:27;;;;;;;15.15;5.07;;;7.10;99.90;;;;;;5039123;28;20082;-73
2022/10/09 06:03:55;;;;;;;9.30;5.53;;;7.10;99.90;;;;;;5042320;28;20033;-71
2022/10/09 06:06:25;;;;;;;14.35;5.40;;;7.10;99.90;;;;;;5039405;28;20030;-73
2022/10/09 06:08:53;;;;;;;15.15;6.18;;;7.10;99.90;;;;;;5037567;28;20120;-74
2022/10/09 06:11:23;;;;;;;14.75;6.45;;;7.20;99.90;;;;;;5037838;28;20029;-73
2022/10/09 06:13:50;;;;;;;21.02;6.22;;;7.20;99.90;;;;;;5045468;28;20082;-74
2022/10/09 06:16:16;;;;;;;15.50;6.15;;;7.20;99.90;;;;;;5038013;28;20043;-74
2022/10/09 06:18:46;;;;;;;16.10;5.65;;;7.20;99.90;;;;;;5039008;28;20411;-73
2022/10/09 06:21:12;;;;;;;17.10;6.35;;;7.20;99.90;;;;;;5039906;28;20147;-74
2022/10/09 06:23:39;;;;;;;18.70;6.07;;;7.20;99.90;;;;;;5039283;28;20039;-74
2022/10/09 06:26:10;;;;;;;14.85;6.45;;;7.20;99.90;;;;;;5040613;28;20031;-72
2022/10/09 06:28:36;;;;;;;12.88;6.22;;;7.20;99.90;;;;;;5051324;28;20021;-74
2022/10/09 06:31:13;;;;;;;20.98;5.97;;;7.30;99.90;;;;;;5036235;28;20114;-74
2022/10/09 06:33:43;;;;;;;15.70;5.55;;;7.30;99.90;;;;;;5037817;28;20071;-74
2022/10/09 06:36:14;;;;;;;15.05;6.18;;;7.30;99.90;;;;;;5040253;28;20029;-74
2022/10/09 06:38:40;;;;;;;13.63;6.25;;;7.40;99.90;;;;;;5042117;28;20033;-74
2022/10/09 06:41:09;;;;;;;18.17;5.70;;;7.50;99.90;;;;;;5039642;28;20087;-73
2022/10/09 06:43:34;;;;;;;12.43;6.05;;;7.60;99.90;;;;;;5057477;28;20053;-74
2022/10/09 06:46:02;;;;;;;15.18;6.47;;;7.60;99.90;;;;;;5044417;28;20064;-74
2022/10/09 06:48:31;;;;;;;12.57;6.10;;;7.80;99.90;;;;;;5042905;28;20025;-73
2022/10/09 06:51:05;;;;;;;12.70;6.22;;;7.80;99.90;;;;;;5038742;28;20029;-73
2022/10/09 06:53:35;;;;;;;12.55;5.63;;;7.90;99.90;;;;;;5041889;28;20424;-72
2022/10/09 06:56:03;;;;;;;15.13;6.28;;;8.00;99.90;;;;;;5041445;28;20045;-72
2022/10/09 06:58:31;;;;;;;12.68;6.10;;;8.10;99.90;;;;;;5038574;28;20021;-74
2022/10/09 07:01:17;;;;;;;18.30;6.70;;;8.20;99.90;;;;;;5042839;28;20082;-74
2022/10/09 07:03:45;;;;;;;18.50;5.68;;;8.30;99.90;;;;;;5041964;28;20110;-74
2022/10/09 07:06:16;;;;;;;18.00;6.18;;;8.30;99.90;;;;;;5039596;28;20025;-72
2022/10/09 07:08:44;;;;;;;22.75;6.57;;;8.40;99.90;;;;;;5041668;28;20087;-74
2022/10/09 07:11:12;;;;;;;19.63;6.45;;;8.40;99.90;;;;;;5044301;28;20021;-73
2022/10/09 07:13:41;;;;;;;15.48;6.40;;;8.60;99.90;;;;;;5042083;28;20481;-75
2022/10/09 07:16:07;;;;;;;13.20;6.35;;;8.70;99.90;;;;;;5044076;28;20037;-73
2022/10/09 07:18:34;;;;;;;16.15;6.28;;;8.80;99.90;;;;;;5039905;28;20033;-74
2022/10/09 07:21:04;;;;;;;12.48;6.63;;;8.90;99.90;;;;;;5042636;28;20032;-75
2022/10/09 07:23:32;;;;;;;13.23;6.65;;;9.10;99.90;;;;;;5039730;28;20021;-73
2022/10/09 07:25:58;;;;;;;12.27;6.05;;;9.20;99.90;;;;;;5041603;28;20108;-74
2022/10/09 07:28:28;;;;;;;20.20;6.68;;;9.30;99.90;;;;;;5040492;28;20037;-74
2022/10/09 07:30:55;;;;;;;15.18;7.07;;;9.60;99.90;;;;;;5040136;28;20017;-74
2022/10/09 07:33:23;;;;;;;18.33;6.97;;;10.30;99.90;;;;;;5041000;28;20013;-72
2022/10/09 07:35:56;;;;;;;17.85;7.15;;;10.70;99.90;;;;;;5039700;28;20044;-74
2022/10/09 07:38:23;;;;;;;19.75;7.15;;;10.70;99.90;;;;;;5038290;28;20096;-74
2022/10/09 07:40:49;;;;;;;16.42;6.93;;;10.60;99.90;;;;;;5042732;28;20022;-76
2022/10/09 07:43:15;;;;;;;16.83;7.85;;;10.50;99.90;;;;;;5040165;28;20027;-74
2022/10/09 07:45:41;;;;;;;12.38;7.32;;;10.40;99.90;;;;;;5042801;28;20025;-74
2022/10/09 07:48:06;;;;;;;14.95;6.68;;;10.40;99.90;;;;;;5040154;28;20018;-74
2022/10/09 07:50:34;;;;;;;21.20;7.55;;;10.50;99.90;;;;;;5040008;28;20039;-73
2022/10/09 07:53:00;;;;;;;25.65;7.63;;;10.50;99.90;;;;;;5041775;28;20037;-74
2022/10/09 07:55:28;;;;;;;21.30;7.90;;;10.60;99.90;;;;;;5044680;28;20044;-73
2022/10/09 07:57:56;;;;;;;16.42;7.20;;;10.60;99.90;;;;;;5043232;28;20021;-74
2022/10/09 08:00:21;;;;;;;18.88;6.95;;;10.70;99.90;;;;;;5048199;28;20034;-75
2022/10/09 08:02:49;;;;;;;15.85;7.65;;;10.80;99.90;;;;;;5042735;28;20041;-71
2022/10/09 08:05:15;;;;;;;15.70;7.32;;;11.00;99.90;;;;;;5038905;28;20025;-74
2022/10/09 08:07:43;;;;;;;19.92;7.10;;;11.10;99.90;;;;;;5038683;28;20101;-74
2022/10/09 08:10:11;;;;;;;16.60;8.15;;;11.30;99.90;;;;;;5043550;28;20025;-73
2022/10/09 08:12:36;;;;;;;14.18;7.40;;;11.50;99.90;;;;;;5045778;28;20083;-74
2022/10/09 08:15:02;;;;;;;20.98;7.65;;;11.70;99.90;;;;;;5039694;28;20425;-73
2022/10/09 08:17:27;;;;;;;20.38;7.88;;;11.90;99.90;;;;;;5036532;28;20025;-73
2022/10/09 08:19:53;;;;;;;15.15;7.70;;;12.20;99.90;;;;;;5039607;28;20071;-73
2022/10/09 08:22:19;;;;;;;16.98;6.72;;;12.40;99.90;;;;;;5037386;28;20354;-74
2022/10/09 08:24:45;;;;;;;15.43;6.80;;;12.50;99.90;;;;;;5042252;28;20026;-74
2022/10/09 08:27:10;;;;;;;17.85;6.55;;;12.70;99.90;;;;;;5037703;28;20088;-74
2022/10/09 08:29:36;;;;;;;14.85;6.72;;;13.00;99.90;;;;;;5040451;28;20672;-73
2022/10/09 08:32:02;;;;;;;12.05;6.68;;;13.00;99.90;;;;;;5037958;28;20045;-74
2022/10/09 08:34:27;;;;;;;20.55;6.82;;;13.20;99.90;;;;;;5040593;28;20027;-72
2022/10/09 08:36:53;;;;;;;16.35;7.03;;;13.40;99.90;;;;;;5041439;28;20045;-74
2022/10/09 08:39:19;;;;;;;16.98;7.45;;;13.60;99.90;;;;;;5040621;28;20033;-74
2022/10/09 08:41:48;;;;;;;20.45;7.57;;;13.80;99.90;;;;;;5036554;28;20374;-74
2022/10/09 08:44:38;;;;;;;19.60;7.13;;;13.90;99.90;;;;;;5035468;28;20386;-73
2022/10/09 08:47:20;;;;;;;15.48;6.88;;;14.30;99.90;;;;;;5035153;28;20068;-73
2022/10/09 08:50:15;;;;;;;16.40;6.93;;;15.00;99.90;;;;;;5035023;28;20025;-73
2022/10/09 08:53:05;;;;;;;158.73;74.20;;;15.90;99.90;;;;;;5034946;28;20484;-71
2022/10/09 08:55:38;;;;;;;24.85;7.30;;;16.90;99.90;;;;;;5038834;28;20339;-75
2022/10/09 08:58:15;;;;;;;22.92;7.22;;;17.70;98.10;;;;;;5038072;28;20025;-75
2022/10/09 09:00:51;;;;;;;17.77;6.13;;;18.40;96.90;;;;;;5037235;28;20025;-74
2022/10/09 09:03:41;;;;;;;18.85;6.32;;;19.10;93.90;;;;;;5038229;28;20350;-74
2022/10/09 09:06:43;;;;;;;13.57;6.10;;;19.70;92.00;;;;;;5034046;28;20029;-74
2022/10/09 09:09:50;;;;;;;15.63;5.90;;;20.40;90.70;;;;;;5033367;28;20043;-74
2022/10/09 09:12:33;;;;;;;16.20;5.60;;;21.10;87.50;;;;;;5030659;28;20036;-75
2022/10/09 09:15:17;;;;;;;15.68;6.00;;;21.30;84.20;;;;;;5037469;28;20429;-73
2022/10/09 09:17:53;;;;;;;9.80;5.43;;;21.80;82.50;;;;;;5047170;28;20057;-75
2022/10/09 09:20:43;;;;;;;17.42;6.55;;;22.40;79.70;;;;;;5045574;28;20640;-70
2022/10/09 09:23:16;;;;;;;29.77;9.35;;;22.60;79.10;;;;;;5036200;28;20025;-69
2022/10/09 09:25:49;;;;;;;21.08;5.80;;;22.30;77.20;;;;;;5038001;28;20017;-72
2022/10/09 09:28:28;;;;;;;11.30;4.90;;;22.40;77.50;;;;;;5037055;28;20026;-72
2022/10/09 09:31:02;;;;;;;12.25;4.60;;;22.30;76.80;;;;;;5039445;28;20029;-71
2022/10/09 09:33:40;;;;;;;15.68;6.03;;;21.80;74.80;;;;;;5038157;28;20018;-72
2022/10/09 09:36:58;;;;;;;22.08;5.57;;;21.90;75.80;;;;;;5037119;28;20036;-73
2022/10/09 09:39:31;;;;;;;22.83;4.97;;;21.70;75.80;;;;;;5033671;28;20156;-72
2022/10/09 09:42:11;;;;;;;14.10;5.10;;;21.40;75.70;;;;;;5035300;28;20047;-72
2022/10/09 09:45:05;;;;;;;13.75;4.95;;;21.40;75.70;;;;;;5037286;28;20438;-73
2022/10/09 09:48:03;;;;;;;16.05;4.82;;;21.00;75.60;;;;;;5036822;28;20021;-72
2022/10/09 09:50:35;;;;;;;16.10;4.85;;;20.80;78.90;;;;;;5036324;28;20106;-72
2022/10/09 09:53:06;;;;;;;98.50;40.50;;;20.70;77.00;;;;;;5038237;28;20464;-68
2022/10/09 09:55:33;;;;;;;109.32;45.53;;;20.50;80.40;;;;;;5040150;28;20068;-68
2022/10/09 09:58:09;;;;;;;10.05;4.15;;;20.30;81.30;;;;;;5035954;28;20029;-70
2022/10/09 10:00:35;;;;;;;22.98;4.82;;;20.40;81.60;;;;;;5036559;28;20029;-69
2022/10/09 10:03:12;;;;;;;14.68;3.65;;;20.40;80.70;;;;;;5037648;28;20409;-70
2022/10/09 10:05:38;;;;;;;12.98;3.95;;;20.60;80.10;;;;;;5037187;28;20029;-72
2022/10/09 10:08:20;;;;;;;13.32;3.85;;;20.60;77.60;;;;;;5037854;28;20017;-72
2022/10/09 10:10:47;;;;;;;16.48;4.25;;;20.70;77.20;;;;;;5037620;28;20027;-72
2022/10/09 10:13:34;;;;;;;11.55;4.25;;;20.50;77.10;;;;;;5040944;28;20039;-71
2022/10/09 10:16:03;;;;;;;11.65;3.90;;;20.50;76.10;;;;;;5054860;28;20068;-71
2022/10/09 10:18:36;;;;;;;8.98;3.55;;;20.70;77.40;;;;;;5041158;28;20032;-72
2022/10/09 10:21:03;;;;;;;17.73;4.10;;;20.70;74.80;;;;;;5042903;28;20096;-68
2022/10/09 10:23:55;;;;;;;17.17;3.63;;;20.70;74.70;;;;;;5040011;28;20021;-70
2022/10/09 10:26:45;;;;;;;12.13;3.67;;;20.80;75.50;;;;;;5040176;28;20022;-70
2022/10/09 10:29:46;;;;;;;16.98;3.70;;;20.90;72.50;;;;;;5040814;28;20053;-70
2022/10/09 10:32:19;;;;;;;173.45;86.55;;;21.00;72.90;;;;;;5049464;28;20591;-68
2022/10/09 10:34:59;;;;;;;17.13;6.15;;;21.30;72.30;;;;;;5042114;28;20160;-69
2022/10/09 10:37:29;;;;;;;15.15;5.57;;;21.30;72.00;;;;;;5042732;28;20025;-70
2022/10/09 10:40:16;;;;;;;11.20;4.30;;;21.50;71.30;;;;;;5039488;28;20547;-70
2022/10/09 10:43:00;;;;;;;11.60;4.05;;;21.50;71.00;;;;;;5043535;28;20032;-70
2022/10/09 10:46:03;;;;;;;12.05;5.95;;;21.70;70.90;;;;;;5042685;28;20026;-70
2022/10/09 10:48:32;;;;;;;10.60;5.88;;;21.80;67.50;;;;;;5039374;28;20021;-70
2022/10/09 10:51:03;;;;;;;11.55;4.30;;;21.50;67.60;;;;;;5041412;28;20041;-71
2022/10/09 10:53:34;;;;;;;13.13;3.42;;;21.40;67.30;;;;;;5037325;28;20124;-71
2022/10/09 10:56:06;;;;;;;10.30;2.92;;;21.50;68.00;;;;;;5043811;28;20033;-70
2022/10/09 10:58:58;;;;;;;11.63;2.28;;;21.00;67.10;;;;;;5039824;28;20484;-73
2022/10/09 11:02:02;;;;;;;6.47;2.25;;;21.00;69.40;;;;;;5042718;28;20075;-71
2022/10/09 11:04:30;;;;;;;6.47;2.03;;;21.10;68.60;;;;;;5039559;28;20037;-71
2022/10/09 11:06:58;;;;;;;7.85;2.47;;;21.20;67.70;;;;;;5036637;28;20055;-71
2022/10/09 11:09:35;;;;;;;7.82;2.58;;;21.00;66.80;;;;;;5037587;28;20025;-73
2022/10/09 11:12:22;;;;;;;9.80;2.40;;;21.10;66.20;;;;;;5038328;28;20087;-71
2022/10/09 11:14:58;;;;;;;13.90;2.70;;;21.20;67.20;;;;;;5039063;28;20048;-71
2022/10/09 11:17:29;;;;;;;7.10;2.30;;;21.30;67.00;;;;;;5042031;28;20362;-71
2022/10/09 11:20:24;;;;;;;6.18;2.22;;;21.50;66.50;;;;;;5040315;28;20450;-70
2022/10/09 11:22:58;;;;;;;7.55;2.17;;;21.50;67.00;;;;;;5041352;28;20032;-68
2022/10/09 11:25:38;;;;;;;5.20;2.28;;;21.60;66.20;;;;;;5041650;28;20020;-71
2022/10/09 11:28:14;;;;;;;6.75;2.38;;;21.70;65.10;;;;;;5042026;28;20434;-71
2022/10/09 11:31:14;;;;;;;6.38;2.60;;;21.80;64.60;;;;;;5039988;28;20033;-70
2022/10/09 11:34:00;;;;;;;8.88;2.67;;;21.60;64.70;;;;;;5038396;28;20414;-71
2022/10/09 11:36:45;;;;;;;8.98;2.33;;;21.70;64.60;;;;;;5038890;28;20111;-71
2022/10/09 11:39:18;;;;;;;8.52;2.47;;;21.90;62.90;;;;;;5040319;28;20032;-71
2022/10/09 11:41:45;;;;;;;;;;;22.20;62.30;;;;;;5038388;28;20100;-70
2022/10/09 11:44:24;;;;;;;11.43;2.35;;;22.40;60.10;;;;;;5038329;28;19919;-70
2022/10/09 11:47:45;;;;;;;7.07;2.00;;;22.50;60.10;;;;;;5038463;28;20029;-71
2022/10/09 11:50:25;;;;;;;7.38;2.40;;;22.60;60.60;;;;;;5018579;28;20124;-71
2022/10/09 11:53:04;;;;;;;8.13;1.92;;;22.60;59.20;;;;;;5040444;28;20028;-71
2022/10/09 11:55:31;;;;;;;5.68;2.10;;;22.30;59.60;;;;;;5039861;28;20021;-70
2022/10/09 11:58:19;;;;;;;8.50;2.22;;;22.40;59.00;;;;;;5037864;28;20030;-70
2022/10/09 12:00:49;;;;;;;9.25;2.28;;;22.50;58.70;;;;;;5038591;28;20108;-70
2022/10/09 12:03:35;;;;;;;8.43;1.60;;;22.70;58.80;;;;;;5041555;28;20021;-70
2022/10/09 12:06:28;;;;;;;6.00;2.33;;;22.90;58.00;;;;;;5041677;28;20033;-70
2022/10/09 12:08:56;;;;;;;3.97;1.60;;;23.00;58.10;;;;;;5040727;28;20060;-70
2022/10/09 12:11:23;;;;;;;5.63;1.85;;;23.00;57.40;;;;;;5057344;28;20025;-71
2022/10/09 12:13:56;;;;;;;3.60;1.67;;;22.80;57.30;;;;;;5055175;28;20525;-70
2022/10/09 12:16:40;;;;;;;8.52;2.00;;;22.60;56.40;;;;;;5039213;28;20056;-71
2022/10/09 12:19:12;;;;;;;5.38;2.13;;;22.50;56.80;;;;;;5057769;28;20112;-69
2022/10/09 12:21:45;;;;;;;5.35;1.88;;;22.60;57.00;;;;;;5043471;28;20059;-67
2022/10/09 12:24:25;;;;;;;5.43;1.90;;;22.60;57.80;;;;;;5042715;28;20438;-70
2022/10/09 12:26:53;;;;;;;7.32;1.88;;;22.70;58.20;;;;;;5039971;28;20013;-70
2022/10/09 12:29:26;;;;;;;5.47;1.83;;;23.10;56.70;;;;;;5040260;28;20090;-69
2022/10/09 12:31:57;;;;;;;7.82;1.80;;;23.40;55.90;;;;;;5040919;28;20025;-71
2022/10/09 12:34:52;;;;;;;8.95;2.00;;;23.80;56.60;;;;;;5039515;28;20033;-71
2022/10/09 12:37:20;;;;;;;3.47;1.52;;;23.70;55.70;;;;;;5042210;28;20032;-68
2022/10/09 12:39:50;;;;;;;5.97;1.85;;;23.70;54.40;;;;;;5041296;28;20024;-69
2022/10/09 12:42:21;;;;;;;6.72;1.85;;;23.60;55.40;;;;;;5042050;28;20021;-69
2022/10/09 12:44:49;;;;;;;9.50;2.00;;;23.50;55.20;;;;;;5041375;28;20021;-69
2022/10/09 12:47:25;;;;;;;8.60;2.40;;;23.80;55.40;;;;;;5039506;28;20021;-69
2022/10/09 12:50:20;;;;;;;8.50;1.95;;;23.60;53.90;;;;;;5041620;28;20032;-69
2022/10/09 12:52:51;;;;;;;4.63;1.98;;;23.50;54.50;;;;;;5040967;28;20124;-69
2022/10/09 12:55:42;;;;;;;6.40;2.50;;;23.60;55.60;;;;;;5043277;28;20021;-70
2022/10/09 12:58:15;;;;;;;5.38;1.90;;;23.20;55.40;;;;;;5038529;28;20052;-68
2022/10/09 13:00:41;;;;;;;;;;;23.60;54.90;;;;;;5041722;28;20103;-69
2022/10/09 13:03:39;;;;;;;6.30;2.03;;;23.90;55.10;;;;;;5040851;28;20515;-70
2022/10/09 13:06:11;;;;;;;3.75;1.70;;;23.90;54.30;;;;;;5041377;28;20017;-70
2022/10/09 13:08:39;;;;;;;1.87;1.57;;;23.60;53.20;;;;;;5040851;28;20041;-69
2022/10/09 13:11:16;;;;;;;7.93;1.77;;;23.60;55.00;;;;;;5042238;28;20087;-71
2022/10/09 13:13:47;;;;;;;7.68;1.75;;;23.70;54.00;;;;;;5040820;28;21012;-70